Weather at Dabo Airport

Public forecast

Using degrees Celsius for public forecast. Weather courtesy of forecast.io.

Closest aviation weather report (METAR) to Dabo Airport

Report is more than 6 hours old.

Closest report is Raja Haji Fisabilillah International Airport, 84.2 nm (156.0 km) N. Retrieved 2022/01/17 09:00 UTC (8 hours ago):

WIDN 170900Z 01010KT 9000 SCT017 28/24 Q1009 NOSIG

Closest aviation forecast (TAF) to Dabo Airport

Forecast is more than 12 hours old.

Closest forecast is Raja Haji Fisabilillah International Airport, 84.2 nm (156.0 km) N. Retrieved 2011/04/08 06:00 UTC (11 years ago):

TAF WIDN 080500Z 0806/0818 04010KT 9000 SCT020 BECMG 35010KT